createdAt,value
2019-02-09T00:01:24.548Z,99.90
2019-02-09T00:03:54.817Z,99.90
2019-02-09T00:06:24.196Z,99.90
2019-02-09T00:08:54.858Z,99.90
2019-02-09T00:11:24.621Z,99.90
2019-02-09T00:13:54.851Z,99.90
2019-02-09T00:16:24.231Z,99.90
2019-02-09T00:18:54.855Z,99.90
2019-02-09T00:21:24.585Z,99.90
2019-02-09T00:23:54.939Z,99.90
2019-02-09T00:26:24.649Z,99.90
2019-02-09T00:28:54.925Z,99.90
2019-02-09T00:31:24.663Z,99.90
2019-02-09T00:33:54.907Z,99.90
2019-02-09T00:36:24.299Z,99.90
2019-02-09T00:38:54.861Z,99.90
2019-02-09T00:41:24.627Z,99.90
2019-02-09T00:43:54.872Z,99.90
2019-02-09T00:46:24.374Z,99.90
2019-02-09T00:48:54.903Z,99.90
2019-02-09T00:51:24.722Z,99.90
2019-02-09T00:53:54.924Z,99.90
2019-02-09T00:56:24.659Z,99.90
2019-02-09T00:58:54.919Z,99.90
2019-02-09T01:01:24.274Z,99.90
2019-02-09T01:03:54.951Z,99.90
2019-02-09T01:06:24.632Z,99.90
2019-02-09T01:08:54.914Z,99.90
2019-02-09T01:11:24.631Z,99.90
2019-02-09T01:13:54.954Z,99.90
2019-02-09T01:16:24.650Z,99.90
2019-02-09T01:18:54.926Z,99.90
2019-02-09T01:21:24.694Z,99.90
2019-02-09T01:23:54.915Z,99.90
2019-02-09T01:26:24.681Z,99.90
2019-02-09T01:28:56.278Z,99.90
2019-02-09T01:31:25.804Z,99.90
2019-02-09T01:33:55.302Z,99.90
2019-02-09T01:36:24.807Z,99.90
2019-02-09T01:38:55.007Z,99.90
2019-02-09T01:41:24.714Z,99.90
2019-02-09T01:43:54.934Z,99.90
2019-02-09T01:46:24.673Z,99.90
2019-02-09T01:48:54.947Z,99.90
2019-02-09T01:51:24.676Z,99.90
2019-02-09T01:53:54.959Z,99.90
2019-02-09T01:56:24.719Z,99.90
2019-02-09T01:58:55.000Z,99.90
2019-02-09T02:01:24.719Z,99.90
2019-02-09T02:03:55.117Z,99.90
2019-02-09T02:06:24.751Z,99.90
2019-02-09T02:08:55.017Z,99.90
2019-02-09T02:11:24.744Z,99.90
2019-02-09T02:13:55.041Z,99.90
2019-02-09T02:16:24.711Z,99.90
2019-02-09T02:18:55.063Z,99.90
2019-02-09T02:21:24.789Z,99.90
2019-02-09T02:23:55.063Z,99.90
2019-02-09T02:26:24.418Z,99.90
2019-02-09T02:28:55.056Z,99.90
2019-02-09T02:31:24.785Z,99.90
2019-02-09T02:33:55.063Z,99.90
2019-02-09T02:36:24.748Z,99.90
2019-02-09T02:38:55.092Z,99.90
2019-02-09T02:41:24.453Z,99.90
2019-02-09T02:43:55.078Z,99.90
2019-02-09T02:46:24.745Z,99.90
2019-02-09T02:48:55.092Z,99.90
2019-02-09T02:51:24.822Z,99.90
2019-02-09T02:53:55.095Z,99.90
2019-02-09T02:56:24.819Z,99.90
2019-02-09T02:58:55.101Z,99.90
2019-02-09T03:01:24.857Z,99.90
2019-02-09T03:03:55.102Z,99.90
2019-02-09T03:06:24.772Z,99.90
2019-02-09T03:08:55.118Z,99.90
2019-02-09T03:11:24.791Z,99.90
2019-02-09T03:13:55.114Z,99.90
2019-02-09T03:16:24.463Z,99.90
2019-02-09T03:18:55.126Z,99.90
2019-02-09T03:21:24.497Z,99.90
2019-02-09T03:23:55.183Z,99.90
2019-02-09T03:26:24.874Z,99.90
2019-02-09T03:28:55.143Z,99.90
2019-02-09T03:31:24.850Z,99.90
2019-02-09T03:33:55.148Z,99.90
2019-02-09T03:36:24.822Z,99.90
2019-02-09T03:38:55.160Z,99.90
2019-02-09T03:41:24.895Z,99.90
2019-02-09T03:43:55.147Z,99.90
2019-02-09T03:46:24.892Z,99.90
2019-02-09T03:48:55.155Z,99.90
2019-02-09T03:51:24.833Z,99.90
2019-02-09T03:53:55.154Z,99.90
2019-02-09T03:56:24.839Z,99.90
2019-02-09T03:58:55.157Z,99.90
2019-02-09T04:01:24.863Z,99.90
2019-02-09T04:03:55.246Z,99.90
2019-02-09T04:06:24.933Z,99.90
2019-02-09T04:08:55.210Z,99.90
2019-02-09T04:11:24.979Z,99.90
2019-02-09T04:13:55.191Z,99.90
2019-02-09T04:16:24.870Z,99.90
2019-02-09T04:18:55.203Z,99.90
2019-02-09T04:21:24.969Z,99.90
2019-02-09T04:23:55.240Z,99.90
2019-02-09T04:26:24.945Z,99.90
2019-02-09T04:28:55.210Z,99.90
2019-02-09T04:31:24.928Z,99.90
2019-02-09T04:33:55.227Z,99.90
2019-02-09T04:36:24.902Z,99.90
2019-02-09T04:38:55.234Z,99.90
2019-02-09T04:41:24.935Z,99.90
2019-02-09T04:43:55.308Z,99.90
2019-02-09T04:46:24.994Z,99.90
2019-02-09T04:48:55.254Z,99.90
2019-02-09T04:51:24.657Z,99.90
2019-02-09T04:53:55.267Z,99.90
2019-02-09T04:56:25.015Z,99.90
2019-02-09T04:58:55.294Z,99.90
2019-02-09T05:01:24.994Z,99.90
2019-02-09T05:03:55.286Z,99.90
2019-02-09T05:06:25.019Z,99.90
2019-02-09T05:08:55.284Z,99.90
2019-02-09T05:11:24.626Z,99.90
2019-02-09T05:13:55.302Z,99.90
2019-02-09T05:16:24.966Z,99.90
2019-02-09T05:18:55.295Z,99.90
2019-02-09T05:21:25.046Z,99.90
2019-02-09T05:23:55.295Z,99.90
2019-02-09T05:26:24.999Z,99.90
2019-02-09T05:28:55.339Z,99.90
2019-02-09T05:31:25.015Z,99.90
2019-02-09T05:33:55.305Z,99.90
2019-02-09T05:36:25.101Z,99.90
2019-02-09T05:38:55.305Z,99.90
2019-02-09T05:41:24.772Z,99.90
2019-02-09T05:43:55.311Z,99.90
2019-02-09T05:46:24.769Z,99.90
2019-02-09T05:48:55.345Z,99.90
2019-02-09T05:51:25.126Z,99.90
2019-02-09T05:53:55.337Z,99.90
2019-02-09T05:56:24.796Z,99.90
2019-02-09T05:58:55.343Z,99.90
2019-02-09T06:01:31.894Z,99.90
2019-02-09T06:06:25.279Z,95.70
2019-02-09T06:08:55.399Z,94.90
2019-02-09T06:11:25.155Z,92.10
2019-02-09T06:13:55.360Z,86.40
2019-02-09T06:16:24.810Z,85.70
2019-02-09T06:18:55.374Z,85.90
2019-02-09T06:21:25.099Z,85.00
2019-02-09T06:23:55.366Z,83.70
2019-02-09T06:26:24.806Z,85.30
2019-02-09T06:28:55.389Z,85.60
2019-02-09T06:31:24.772Z,86.50
2019-02-09T06:33:55.382Z,90.10
2019-02-09T06:36:25.168Z,90.60
2019-02-09T06:38:55.381Z,92.90
2019-02-09T06:41:24.841Z,98.40
2019-02-09T06:43:55.394Z,99.90
2019-02-09T06:46:24.863Z,99.90
2019-02-09T06:48:55.415Z,99.90
2019-02-09T06:51:24.865Z,99.90
2019-02-09T06:53:55.442Z,99.90
2019-02-09T06:56:24.819Z,99.90
2019-02-09T07:01:24.541Z,99.90
2019-02-09T07:03:55.095Z,99.90
2019-02-09T07:06:24.543Z,99.90
2019-02-09T07:08:54.815Z,99.90
2019-02-09T07:11:25.046Z,99.90
2019-02-09T07:13:55.529Z,99.90
2019-02-09T07:16:25.208Z,99.90
2019-02-09T07:18:55.487Z,99.90
2019-02-09T07:21:25.268Z,99.90
2019-02-09T07:23:55.477Z,99.90
2019-02-09T07:26:24.929Z,99.90
2019-02-09T07:28:55.503Z,99.90
2019-02-09T07:31:25.204Z,99.90
2019-02-09T07:33:55.504Z,99.90
2019-02-09T07:36:25.224Z,99.90
2019-02-09T07:38:55.490Z,99.90
2019-02-09T07:41:24.950Z,99.90
2019-02-09T07:43:55.529Z,99.90
2019-02-09T07:46:24.981Z,99.90
2019-02-09T07:48:55.530Z,99.90
2019-02-09T07:51:24.984Z,99.90
2019-02-09T07:53:55.539Z,99.90
2019-02-09T07:56:24.981Z,99.90
2019-02-09T07:58:55.556Z,99.90
2019-02-09T08:01:25.012Z,99.90
2019-02-09T08:03:55.581Z,99.90
2019-02-09T08:06:25.303Z,99.90
2019-02-09T08:08:55.584Z,99.90
2019-02-09T08:11:25.340Z,99.90
2019-02-09T08:13:55.665Z,99.90
2019-02-09T08:16:25.388Z,99.90
2019-02-09T08:18:55.590Z,99.90
2019-02-09T08:21:25.056Z,99.90
2019-02-09T08:23:55.601Z,99.90
2019-02-09T08:26:25.070Z,99.90
2019-02-09T08:28:55.640Z,99.90
2019-02-09T08:31:25.094Z,99.90
2019-02-09T08:33:55.630Z,99.90
2019-02-09T08:36:25.015Z,99.90
2019-02-09T08:38:55.617Z,99.90
2019-02-09T08:41:25.155Z,99.90
2019-02-09T08:43:55.639Z,99.90
2019-02-09T08:46:25.063Z,99.90
2019-02-09T08:48:55.641Z,99.90
2019-02-09T08:51:25.011Z,99.90
2019-02-09T08:53:55.657Z,99.90
2019-02-09T08:56:25.119Z,99.90
2019-02-09T08:58:55.661Z,99.90
2019-02-09T09:01:25.367Z,99.90
2019-02-09T09:03:55.657Z,99.90
2019-02-09T09:06:25.389Z,99.90
2019-02-09T09:08:55.685Z,99.90
2019-02-09T09:11:25.415Z,99.90
2019-02-09T09:13:55.666Z,99.90
2019-02-09T09:16:25.410Z,99.90
2019-02-09T09:18:55.691Z,99.90
2019-02-09T09:21:25.368Z,99.90
2019-02-09T09:23:55.702Z,99.90
2019-02-09T09:26:25.358Z,99.90
2019-02-09T09:28:55.698Z,99.90
2019-02-09T09:31:25.382Z,99.90
2019-02-09T09:33:55.724Z,99.90
2019-02-09T09:36:25.472Z,99.90
2019-02-09T09:38:55.726Z,99.90
2019-02-09T09:41:25.094Z,99.90
2019-02-09T09:43:55.711Z,99.90
2019-02-09T09:46:25.394Z,99.90
2019-02-09T09:48:55.726Z,99.90
2019-02-09T09:51:25.422Z,99.90
2019-02-09T09:53:55.740Z,99.90
2019-02-09T09:56:25.459Z,99.90
2019-02-09T09:58:55.727Z,99.90
2019-02-09T10:01:25.420Z,99.90
2019-02-09T10:03:55.751Z,99.90
2019-02-09T10:06:25.423Z,99.90
2019-02-09T10:08:55.754Z,99.90
2019-02-09T10:11:25.491Z,99.90
2019-02-09T10:13:55.753Z,99.90
2019-02-09T10:16:25.115Z,99.90
2019-02-09T10:18:55.768Z,99.90
2019-02-09T10:21:25.527Z,99.90
2019-02-09T10:23:55.788Z,99.90
2019-02-09T10:26:25.469Z,99.90
2019-02-09T10:28:55.798Z,99.90
2019-02-09T10:31:25.537Z,99.90
2019-02-09T10:33:55.798Z,99.90
2019-02-09T10:36:25.483Z,99.90
2019-02-09T10:38:55.809Z,99.90
2019-02-09T10:41:25.495Z,99.90
2019-02-09T10:43:55.887Z,99.90
2019-02-09T10:46:25.569Z,99.90
2019-02-09T10:48:55.834Z,99.90
2019-02-09T10:51:25.628Z,99.90
2019-02-09T10:53:55.850Z,99.90
2019-02-09T10:56:25.530Z,99.90
2019-02-09T10:58:55.850Z,99.90
2019-02-09T11:01:25.534Z,99.90
2019-02-09T11:03:55.883Z,99.90
2019-02-09T11:06:25.594Z,99.90
2019-02-09T11:08:55.858Z,99.90
2019-02-09T11:11:25.223Z,99.90
2019-02-09T11:13:55.874Z,99.90
2019-02-09T11:16:25.546Z,99.90
2019-02-09T11:18:55.887Z,99.90
2019-02-09T11:21:25.293Z,99.90
2019-02-09T11:23:55.854Z,99.90
2019-02-09T11:26:25.238Z,99.90
2019-02-09T11:28:55.858Z,99.90
2019-02-09T11:31:25.667Z,99.90
2019-02-09T11:33:55.871Z,99.90
2019-02-09T11:36:25.799Z,99.90
2019-02-09T11:38:55.986Z,99.90
2019-02-09T11:41:25.681Z,99.90
2019-02-09T11:43:55.883Z,99.90
2019-02-09T11:46:25.791Z,99.90
2019-02-09T11:48:55.968Z,99.90
2019-02-09T11:51:25.615Z,99.90
2019-02-09T11:53:55.919Z,99.90
2019-02-09T11:56:25.703Z,99.90
2019-02-09T11:58:55.913Z,99.90
2019-02-09T12:01:25.727Z,99.90
2019-02-09T12:03:56.028Z,99.90
2019-02-09T12:06:25.709Z,99.90
2019-02-09T12:08:56.040Z,99.90
2019-02-09T12:11:25.698Z,99.90
2019-02-09T12:13:55.926Z,99.90
2019-02-09T12:16:25.305Z,99.90
2019-02-09T12:18:55.925Z,99.90
2019-02-09T12:21:25.674Z,99.90
2019-02-09T12:23:56.009Z,99.90
2019-02-09T12:26:25.778Z,99.90
2019-02-09T12:28:55.934Z,99.90
2019-02-09T12:31:25.670Z,99.90
2019-02-09T12:33:55.970Z,99.90
2019-02-09T12:36:25.756Z,99.90
2019-02-09T12:38:55.968Z,99.90
2019-02-09T12:41:25.750Z,99.90
2019-02-09T12:43:58.986Z,99.90
2019-02-09T12:46:28.371Z,99.90
2019-02-09T12:48:57.927Z,99.90
2019-02-09T12:51:27.376Z,99.90
2019-02-09T12:53:56.939Z,99.90
2019-02-09T12:56:26.450Z,99.90
2019-02-09T12:58:56.102Z,99.90
2019-02-09T13:01:25.791Z,99.90
2019-02-09T13:03:56.014Z,99.90
2019-02-09T13:06:25.752Z,99.90
2019-02-09T13:08:56.036Z,99.90
2019-02-09T13:11:25.759Z,99.90
2019-02-09T13:13:56.032Z,99.90
2019-02-09T13:16:25.776Z,99.90
2019-02-09T13:18:56.043Z,99.90
2019-02-09T13:21:25.831Z,99.90
2019-02-09T13:23:56.099Z,99.90
2019-02-09T13:26:25.896Z,99.90
2019-02-09T13:28:56.079Z,99.90
2019-02-09T13:31:25.778Z,99.90
2019-02-09T13:33:56.052Z,99.90
2019-02-09T13:36:25.702Z,99.90
2019-02-09T13:38:56.044Z,99.90
2019-02-09T13:41:25.412Z,99.90
2019-02-09T13:43:56.046Z,99.90
2019-02-09T13:46:25.456Z,99.90
2019-02-09T13:48:57.495Z,99.90
2019-02-09T13:51:27.037Z,99.90
2019-02-09T13:53:56.439Z,99.90
2019-02-09T13:56:25.964Z,99.90
2019-02-09T13:58:56.075Z,99.90
2019-02-09T14:01:25.467Z,99.90
2019-02-09T14:03:56.084Z,99.90
2019-02-09T14:06:25.405Z,99.90
2019-02-09T14:08:56.069Z,99.90
2019-02-09T14:11:25.486Z,99.90
2019-02-09T14:13:56.084Z,99.90
2019-02-09T14:16:25.785Z,99.90
2019-02-09T14:18:56.099Z,99.90
2019-02-09T14:21:25.429Z,99.90
2019-02-09T14:23:56.153Z,99.90
2019-02-09T14:26:25.859Z,99.90
2019-02-09T14:28:56.167Z,99.90
2019-02-09T14:31:37.678Z,99.90
2019-02-09T14:34:07.107Z,99.90
2019-02-09T14:36:36.513Z,99.90
2019-02-09T14:39:09.519Z,99.90
2019-02-09T14:41:38.913Z,99.90
2019-02-09T14:44:08.282Z,99.90
2019-02-09T14:46:40.035Z,99.90
2019-02-09T14:49:09.670Z,99.90
2019-02-09T14:51:39.072Z,99.90
2019-02-09T14:54:08.395Z,99.90
2019-02-09T14:56:37.919Z,99.90
2019-02-09T14:59:07.330Z,99.90
2019-02-09T15:01:36.994Z,99.90
2019-02-09T15:04:06.496Z,99.90
2019-02-09T15:06:39.445Z,99.90
2019-02-09T15:09:09.090Z,99.90
2019-02-09T15:11:38.412Z,99.90
2019-02-09T15:14:08.063Z,99.90
2019-02-09T15:16:37.733Z,99.90
2019-02-09T15:19:07.107Z,99.90
2019-02-09T15:21:36.584Z,99.90
2019-02-09T15:24:07.988Z,99.90
2019-02-09T15:26:37.493Z,99.90
2019-02-09T15:29:42.096Z,99.90
2019-02-09T15:32:11.519Z,99.90
2019-02-09T15:34:41.013Z,99.90
2019-02-09T15:37:10.349Z,99.90
2019-02-09T15:39:39.984Z,99.90
2019-02-09T15:42:09.331Z,99.90
2019-02-09T15:44:39.037Z,99.90
2019-02-09T15:47:08.543Z,99.90
2019-02-09T15:49:38.017Z,99.90
2019-02-09T15:52:07.529Z,99.90
2019-02-09T15:54:36.987Z,99.90
2019-02-09T15:57:06.401Z,99.90
2019-02-09T15:59:36.019Z,99.90
2019-02-09T16:02:05.739Z,99.90
2019-02-09T16:04:35.209Z,99.90
2019-02-09T16:07:58.645Z,99.90
2019-02-09T16:10:28.027Z,99.90
2019-02-09T16:12:57.443Z,99.90
2019-02-09T16:15:31.183Z,99.90
2019-02-09T16:18:01.231Z,99.90
2019-02-09T16:20:34.645Z,99.90
2019-02-09T16:23:04.512Z,99.90
2019-02-09T16:25:34.123Z,99.90
2019-02-09T16:28:03.518Z,99.90
2019-02-09T16:30:33.086Z,99.90
2019-02-09T16:33:02.597Z,99.90
2019-02-09T16:35:32.665Z,99.90
2019-02-09T16:38:02.188Z,99.90
2019-02-09T16:40:35.996Z,99.90
2019-02-09T16:43:06.050Z,99.90
2019-02-09T16:45:36.575Z,99.90
2019-02-09T16:48:10.324Z,99.90
2019-02-09T16:50:39.748Z,99.90
2019-02-09T16:53:09.271Z,99.90
2019-02-09T16:55:39.898Z,99.90
2019-02-09T16:58:09.548Z,99.90
2019-02-09T17:01:33.297Z,99.90
2019-02-09T17:04:02.742Z,99.90
2019-02-09T17:06:32.218Z,99.90
2019-02-09T17:09:01.687Z,99.90
2019-02-09T17:11:32.820Z,99.90
2019-02-09T17:14:02.212Z,99.90
2019-02-09T17:16:31.736Z,99.90
2019-02-09T17:19:01.212Z,99.90
2019-02-09T17:21:31.140Z,99.90
2019-02-09T17:24:00.723Z,99.90
2019-02-09T17:26:30.267Z,99.90
2019-02-09T17:28:59.669Z,99.90
2019-02-09T17:31:32.096Z,99.90
2019-02-09T17:34:03.316Z,99.90
2019-02-09T17:36:32.711Z,99.90
2019-02-09T17:39:02.273Z,99.90
2019-02-09T17:41:32.157Z,99.90
2019-02-09T17:44:01.536Z,99.90
2019-02-09T17:46:31.183Z,99.90
2019-02-09T17:49:00.576Z,99.90
2019-02-09T17:51:30.200Z,99.90
2019-02-09T17:53:59.668Z,99.90
2019-02-09T17:56:29.257Z,99.90
2019-02-09T17:58:58.714Z,99.90
2019-02-09T18:01:28.204Z,99.90
2019-02-09T18:03:57.632Z,99.90
2019-02-09T18:06:27.757Z,99.90
2019-02-09T18:08:57.540Z,99.90
2019-02-09T18:11:27.172Z,99.90
2019-02-09T18:13:59.156Z,99.90
2019-02-09T18:16:33.909Z,99.90
2019-02-09T18:19:03.470Z,99.90
2019-02-09T18:21:33.071Z,99.90
2019-02-09T18:24:02.577Z,99.90
2019-02-09T18:26:32.455Z,99.90
2019-02-09T18:29:02.881Z,99.90
2019-02-09T18:31:32.303Z,99.90
2019-02-09T18:34:01.848Z,99.90
2019-02-09T18:36:34.662Z,99.90
2019-02-09T18:39:07.763Z,99.90
2019-02-09T18:41:37.286Z,99.90
2019-02-09T18:44:06.706Z,99.90
2019-02-09T18:46:36.330Z,99.90
2019-02-09T18:49:05.812Z,99.90
2019-02-09T18:51:35.264Z,99.90
2019-02-09T18:54:23.023Z,99.90
2019-02-09T18:56:52.415Z,99.90
2019-02-09T18:59:21.824Z,99.90
2019-02-09T19:01:51.305Z,99.90
2019-02-09T19:04:20.630Z,99.90
2019-02-09T19:06:50.443Z,99.90
2019-02-09T19:09:20.438Z,99.90
2019-02-09T19:11:53.562Z,99.90
2019-02-09T19:14:23.244Z,99.90
2019-02-09T19:16:52.754Z,99.90
2019-02-09T19:20:17.030Z,99.90
2019-02-09T19:23:22.961Z,99.90
2019-02-09T19:25:52.353Z,99.90
2019-02-09T19:28:22.050Z,99.90
2019-02-09T19:30:52.501Z,99.90
2019-02-09T19:33:22.584Z,99.90
2019-02-09T19:35:52.229Z,99.90
2019-02-09T19:38:22.026Z,99.90
2019-02-09T19:40:51.504Z,99.90
2019-02-09T19:43:20.927Z,99.90
2019-02-09T19:45:50.335Z,99.90
2019-02-09T19:48:19.969Z,99.90
2019-02-09T19:50:49.540Z,99.90
2019-02-09T19:53:24.955Z,99.90
2019-02-09T19:55:59.860Z,99.90
2019-02-09T19:58:31.706Z,99.90
2019-02-09T20:01:05.625Z,99.90
2019-02-09T20:03:35.631Z,99.90
2019-02-09T20:06:07.263Z,99.90
2019-02-09T20:08:37.483Z,99.90
2019-02-09T20:11:11.520Z,99.90
2019-02-09T20:13:41.306Z,99.90
2019-02-09T20:16:30.839Z,99.90
2019-02-09T20:19:00.545Z,99.90
2019-02-09T20:21:29.869Z,99.90
2019-02-09T20:23:59.547Z,99.90
2019-02-09T20:26:28.935Z,99.90
2019-02-09T20:28:58.562Z,99.90
2019-02-09T20:31:27.971Z,99.90
2019-02-09T20:33:57.589Z,99.90
2019-02-09T20:36:26.974Z,99.90
2019-02-09T20:39:04.329Z,99.90
2019-02-09T20:41:27.804Z,99.90
2019-02-09T20:43:57.481Z,99.90
2019-02-09T20:46:26.884Z,99.90
2019-02-09T20:48:56.639Z,99.90
2019-02-09T20:51:26.047Z,99.90
2019-02-09T20:53:56.655Z,99.90
2019-02-09T20:56:26.076Z,99.90
2019-02-09T20:58:56.652Z,99.90
2019-02-09T21:01:26.054Z,99.90
2019-02-09T21:03:56.663Z,99.90
2019-02-09T21:07:24.475Z,99.90
2019-02-09T21:09:51.000Z,99.90
2019-02-09T21:13:14.720Z,99.90
2019-02-09T21:15:44.108Z,99.90
2019-02-09T21:18:13.581Z,99.90
2019-02-09T21:20:42.988Z,99.90
2019-02-09T21:23:12.581Z,99.90
2019-02-09T21:25:44.412Z,99.90
2019-02-09T21:28:13.818Z,99.90
2019-02-09T21:30:43.476Z,99.90
2019-02-09T21:33:12.898Z,99.90
2019-02-09T21:35:44.048Z,99.90
2019-02-09T21:38:13.633Z,99.90
2019-02-09T21:40:43.029Z,99.90
2019-02-09T21:43:12.606Z,99.90
2019-02-09T21:45:45.372Z,99.90
2019-02-09T21:48:13.708Z,99.90
2019-02-09T21:50:43.099Z,99.90
2019-02-09T21:53:12.672Z,99.90
2019-02-09T21:55:42.075Z,99.90
2019-02-09T21:58:11.646Z,99.90
2019-02-09T22:00:56.032Z,99.90
2019-02-09T22:03:26.630Z,99.90
2019-02-09T22:05:59.847Z,99.90
2019-02-09T22:08:29.551Z,99.90
2019-02-09T22:10:58.953Z,99.90
2019-02-09T22:13:28.511Z,99.90
2019-02-09T22:15:57.915Z,99.90
2019-02-09T22:18:27.617Z,99.90
2019-02-09T22:20:57.047Z,99.90
2019-02-09T22:23:26.571Z,99.90
2019-02-09T22:25:56.771Z,99.90
2019-02-09T22:28:26.189Z,99.90
2019-02-09T22:30:56.865Z,99.90
2019-02-09T22:33:26.594Z,99.90
2019-02-09T22:36:15.084Z,99.90
2019-02-09T22:38:44.574Z,99.90
2019-02-09T22:41:13.962Z,99.90
2019-02-09T22:43:43.574Z,99.90
2019-02-09T22:46:12.982Z,99.90
2019-02-09T22:48:42.598Z,99.90
2019-02-09T22:51:12.049Z,99.90
2019-02-09T22:53:41.580Z,99.90
2019-02-09T22:56:10.976Z,99.90
2019-02-09T22:58:40.635Z,99.90
2019-02-09T23:01:19.397Z,99.90
2019-02-09T23:04:32.245Z,99.90
2019-02-09T23:07:03.168Z,99.90
2019-02-09T23:10:26.487Z,99.90
2019-02-09T23:13:51.151Z,99.90
2019-02-09T23:16:20.618Z,99.90
2019-02-09T23:18:50.040Z,99.90
2019-02-09T23:21:19.674Z,99.90
2019-02-09T23:23:49.072Z,99.90
2019-02-09T23:26:18.626Z,99.90
2019-02-09T23:29:39.435Z,99.90
2019-02-09T23:32:08.829Z,99.90
2019-02-09T23:34:38.231Z,99.90
2019-02-09T23:38:01.803Z,99.90
2019-02-09T23:40:31.217Z,99.90
2019-02-09T23:43:00.829Z,99.90
2019-02-09T23:46:24.412Z,99.90
2019-02-09T23:48:53.817Z,99.90
2019-02-09T23:51:23.214Z,99.90
2019-02-09T23:53:52.719Z,99.90
2019-02-09T23:56:22.119Z,99.90
2019-02-09T23:58:51.722Z,99.90
